Time;durP1;ratioP1;P1;durP2;ratioP2;P2;SDS_P1;SDS_P2;PMS_P1;PMS_P2;Temp;Humidity;BMP_temperature;BMP_pressure;BME280_temperature;BME280_humidity;BME280_pressure;Samples;Min_cycle;Max_cycle;Signal;HPM_P1;HPM_P2
2022/12/16 00:01:10;;;;;;;21.50;11.15;;;-1.80;99.90;;;;;;5051657;28;20067;-57
2022/12/16 00:03:37;;;;;;;21.63;11.85;;;-1.80;99.90;;;;;;5053783;28;20106;-60
2022/12/16 00:06:04;;;;;;;22.77;12.13;;;-1.80;99.90;;;;;;5040969;28;20058;-60
2022/12/16 00:08:31;;;;;;;20.92;12.63;;;-1.80;99.90;;;;;;5034297;28;20388;-59
2022/12/16 00:10:58;;;;;;;19.55;11.45;;;-1.80;99.90;;;;;;5053037;28;20036;-60
2022/12/16 00:13:24;;;;;;;20.73;12.10;;;-1.80;99.90;;;;;;5052590;28;20497;-58
2022/12/16 00:15:51;;;;;;;21.20;12.50;;;-1.80;99.90;;;;;;5053479;28;20064;-59
2022/12/16 00:18:19;;;;;;;25.08;11.10;;;-1.80;99.90;;;;;;5053145;28;20480;-60
2022/12/16 00:20:45;;;;;;;19.65;12.88;;;-1.90;99.90;;;;;;5053237;28;20045;-60
2022/12/16 00:23:12;;;;;;;21.23;13.00;;;-1.80;99.90;;;;;;5053099;28;20041;-57
2022/12/16 00:25:39;;;;;;;18.95;13.68;;;-1.90;99.90;;;;;;5048039;28;20071;-59
2022/12/16 00:28:05;;;;;;;23.85;13.27;;;-1.90;99.90;;;;;;5053371;28;20041;-61
2022/12/16 00:30:32;;;;;;;20.58;13.88;;;-1.90;99.90;;;;;;5052851;28;20169;-59
2022/12/16 00:32:59;;;;;;;19.90;12.30;;;-2.00;99.90;;;;;;5052629;28;20128;-57
2022/12/16 00:35:26;;;;;;;17.38;11.90;;;-1.90;99.90;;;;;;5053557;28;20563;-53
2022/12/16 00:37:52;;;;;;;21.98;12.60;;;-2.00;99.90;;;;;;5046290;28;20065;-62
2022/12/16 00:40:20;;;;;;;21.17;13.55;;;-2.00;99.90;;;;;;5046915;28;20041;-60
2022/12/16 00:42:47;;;;;;;22.70;12.82;;;-2.00;99.90;;;;;;5052332;28;20072;-60
2022/12/16 00:45:13;;;;;;;19.40;12.13;;;-2.00;99.90;;;;;;5052622;28;20068;-61
2022/12/16 00:47:40;;;;;;;18.70;12.10;;;-2.00;99.90;;;;;;5053194;28;20389;-60
2022/12/16 00:50:10;;;;;;;17.42;11.80;;;-2.00;99.90;;;;;;5053389;28;20044;-58
2022/12/16 00:52:36;;;;;;;21.17;12.50;;;-2.00;99.90;;;;;;5036478;28;20345;-57
2022/12/16 00:55:03;;;;;;;20.65;12.07;;;-2.00;99.90;;;;;;5031634;28;20595;-58
2022/12/16 00:57:30;;;;;;;19.58;12.43;;;-2.00;99.90;;;;;;5030747;28;20038;-60
2022/12/16 00:59:57;;;;;;;25.13;12.52;;;-2.00;99.90;;;;;;5031509;28;20045;-59
2022/12/16 01:02:23;;;;;;;20.95;12.05;;;-2.00;99.90;;;;;;5032190;28;20087;-59
2022/12/16 01:04:50;;;;;;;21.67;12.75;;;-2.00;99.90;;;;;;5032451;28;20046;-60
2022/12/16 01:07:17;;;;;;;19.23;11.43;;;-2.00;99.90;;;;;;5032192;28;20041;-59
2022/12/16 01:09:44;;;;;;;18.17;12.07;;;-2.00;99.90;;;;;;5041862;28;20060;-56
2022/12/16 01:12:11;;;;;;;21.73;12.38;;;-2.00;99.90;;;;;;5053674;28;20048;-58
2022/12/16 01:14:37;;;;;;;23.75;12.57;;;-2.00;99.90;;;;;;5051975;28;20438;-57
2022/12/16 01:17:04;;;;;;;19.70;11.98;;;-2.10;99.90;;;;;;5053388;28;20053;-60
2022/12/16 01:19:31;;;;;;;19.33;11.15;;;-2.10;99.90;;;;;;5053230;28;20103;-58
2022/12/16 01:21:58;;;;;;;17.73;11.57;;;-2.10;99.90;;;;;;5053463;28;20041;-60
2022/12/16 01:24:24;;;;;;;19.23;11.68;;;-2.10;99.90;;;;;;5053236;28;20476;-59
2022/12/16 01:26:51;;;;;;;20.15;11.68;;;-2.10;99.90;;;;;;5052992;28;20068;-60
2022/12/16 01:29:18;;;;;;;19.08;11.57;;;-2.10;99.90;;;;;;5053293;28;20061;-60
2022/12/16 01:31:45;;;;;;;18.70;12.10;;;-2.20;99.90;;;;;;5052981;28;20166;-60
2022/12/16 01:34:11;;;;;;;19.88;12.07;;;-2.20;99.90;;;;;;5046126;28;20484;-59
2022/12/16 01:36:38;;;;;;;24.05;12.80;;;-2.20;99.90;;;;;;5040209;28;20112;-57
2022/12/16 01:39:05;;;;;;;21.15;13.13;;;-2.20;99.90;;;;;;5040999;28;20120;-60
2022/12/16 01:41:31;;;;;;;19.05;11.38;;;-2.20;99.90;;;;;;5042665;28;20041;-58
2022/12/16 01:43:58;;;;;;;23.63;13.80;;;-2.20;99.90;;;;;;5040074;28;20365;-59
2022/12/16 01:46:25;;;;;;;16.50;11.48;;;-2.30;99.90;;;;;;5032833;28;20037;-59
2022/12/16 01:48:52;;;;;;;18.20;11.60;;;-2.30;99.90;;;;;;5032766;28;20038;-59
2022/12/16 01:51:19;;;;;;;20.15;12.27;;;-2.30;99.90;;;;;;5043694;28;20045;-60
2022/12/16 01:53:45;;;;;;;21.88;11.60;;;-2.40;99.90;;;;;;5052592;28;20041;-61
2022/12/16 01:56:12;;;;;;;19.05;11.07;;;-2.40;99.90;;;;;;5052346;28;20454;-56
2022/12/16 01:58:39;;;;;;;20.65;11.32;;;-2.40;99.90;;;;;;5052936;28;20462;-61
2022/12/16 02:01:06;;;;;;;19.63;12.00;;;-2.40;99.90;;;;;;5052166;28;20428;-60
2022/12/16 02:03:32;;;;;;;18.77;11.07;;;-2.40;99.90;;;;;;5052595;28;20428;-59
2022/12/16 02:06:00;;;;;;;17.70;12.07;;;-2.50;99.90;;;;;;5051022;28;20099;-58
2022/12/16 02:08:26;;;;;;;15.90;10.68;;;-2.50;99.90;;;;;;5052453;28;20446;-62
2022/12/16 02:10:53;;;;;;;19.10;10.55;;;-2.50;99.90;;;;;;5052371;28;20052;-61
2022/12/16 02:13:22;;;;;;;20.20;12.05;;;-2.60;99.90;;;;;;5052170;28;20482;-61
2022/12/16 02:15:48;;;;;;;16.40;11.48;;;-2.60;99.90;;;;;;5051993;28;20045;-59
2022/12/16 02:18:16;;;;;;;17.77;10.93;;;-2.70;99.90;;;;;;5051978;28;20044;-59
2022/12/16 02:20:43;;;;;;;18.10;10.90;;;-2.70;99.90;;;;;;5051017;28;20041;-60
2022/12/16 02:23:10;;;;;;;17.40;11.30;;;-2.80;99.90;;;;;;5050502;28;20076;-61
2022/12/16 02:25:37;;;;;;;19.13;11.23;;;-2.80;99.90;;;;;;5051879;28;20091;-58
2022/12/16 02:28:03;;;;;;;20.13;12.48;;;-2.70;99.90;;;;;;5052077;28;20046;-61
2022/12/16 02:30:30;;;;;;;18.58;10.80;;;-2.70;99.90;;;;;;5051994;28;20083;-61
2022/12/16 02:32:57;;;;;;;20.75;11.90;;;-2.60;99.90;;;;;;5051504;28;20055;-62
2022/12/16 02:35:24;;;;;;;19.70;11.57;;;-2.70;99.90;;;;;;5049892;28;20526;-61
2022/12/16 02:37:51;;;;;;;20.48;12.95;;;-2.70;99.90;;;;;;5051472;28;20037;-60
2022/12/16 02:40:19;;;;;;;21.05;12.00;;;-2.60;99.90;;;;;;5051812;28;20044;-59
2022/12/16 02:42:46;;;;;;;20.00;11.63;;;-2.60;99.90;;;;;;5051755;28;20060;-61
2022/12/16 02:45:12;;;;;;;22.30;12.77;;;-2.60;99.90;;;;;;5051227;28;20037;-61
2022/12/16 02:47:39;;;;;;;17.70;11.77;;;-2.60;99.90;;;;;;5052140;28;20065;-61
2022/12/16 02:50:06;;;;;;;16.05;11.18;;;-2.60;99.90;;;;;;5051947;28;20495;-61
2022/12/16 02:52:32;;;;;;;21.88;12.00;;;-2.70;99.90;;;;;;5051630;28;20127;-60
2022/12/16 02:54:59;;;;;;;18.85;12.15;;;-2.70;99.90;;;;;;5052057;28;20037;-61
2022/12/16 02:57:26;;;;;;;20.02;11.38;;;-2.70;99.90;;;;;;5055618;28;20060;-60
2022/12/16 02:59:52;;;;;;;20.77;12.73;;;-2.70;99.90;;;;;;5054389;28;20087;-61
2022/12/16 03:02:19;;;;;;;19.40;11.27;;;-2.80;99.90;;;;;;5055656;28;20072;-60
2022/12/16 03:04:48;;;;;;;18.77;11.38;;;-2.80;99.90;;;;;;5055441;28;20120;-61
2022/12/16 03:07:15;;;;;;;17.23;10.85;;;-2.80;99.90;;;;;;5055665;28;20060;-61
2022/12/16 03:09:42;;;;;;;21.05;11.63;;;-2.90;99.90;;;;;;5044242;28;20427;-61
2022/12/16 03:12:08;;;;;;;20.92;12.02;;;-2.90;99.90;;;;;;5044112;28;20484;-59
2022/12/16 03:14:35;;;;;;;22.88;11.98;;;-2.90;99.90;;;;;;5055544;28;20540;-62
2022/12/16 03:17:02;;;;;;;23.55;11.63;;;-2.90;99.90;;;;;;5041105;28;20033;-59
2022/12/16 03:19:29;;;;;;;23.30;10.75;;;-2.90;99.90;;;;;;5040298;28;20522;-57
2022/12/16 03:21:56;;;;;;;17.25;11.07;;;-2.90;99.90;;;;;;5035961;28;20431;-56
2022/12/16 03:24:22;;;;;;;20.05;11.38;;;-2.90;99.90;;;;;;5046988;28;20037;-53
2022/12/16 03:26:49;;;;;;;21.30;11.77;;;-2.90;99.90;;;;;;5039712;28;20041;-57
2022/12/16 03:29:16;;;;;;;18.38;11.63;;;-3.00;99.90;;;;;;5038156;28;20068;-61
2022/12/16 03:31:42;;;;;;;18.88;11.63;;;-3.00;99.90;;;;;;5035931;28;20069;-60
2022/12/16 03:34:09;;;;;;;23.60;12.95;;;-3.00;99.90;;;;;;5036774;28;20041;-61
2022/12/16 03:36:36;;;;;;;16.85;11.95;;;-3.00;99.90;;;;;;5054655;28;20516;-59
2022/12/16 03:39:03;;;;;;;21.65;13.20;;;-3.00;99.90;;;;;;5054665;28;20067;-60
2022/12/16 03:41:29;;;;;;;20.58;12.05;;;-3.00;99.90;;;;;;5053622;28;20052;-63
2022/12/16 03:43:56;;;;;;;23.35;12.23;;;-3.00;99.90;;;;;;5041611;28;20515;-60
2022/12/16 03:46:23;;;;;;;21.10;12.02;;;-3.00;99.90;;;;;;5035363;28;20080;-60
2022/12/16 03:48:50;;;;;;;21.35;12.65;;;-3.00;99.90;;;;;;5049165;28;20033;-61
2022/12/16 03:51:16;;;;;;;20.10;12.23;;;-3.00;99.90;;;;;;5053196;28;20208;-58
2022/12/16 03:53:43;;;;;;;21.75;13.20;;;-3.10;99.90;;;;;;5054608;28;20080;-61
2022/12/16 03:56:10;;;;;;;20.55;12.25;;;-3.10;99.90;;;;;;5054277;28;20534;-60
2022/12/16 03:58:39;;;;;;;20.52;11.40;;;-3.10;99.90;;;;;;5053617;28;20049;-60
2022/12/16 04:01:05;;;;;;;20.95;12.73;;;-3.10;99.90;;;;;;5035197;28;20477;-60
2022/12/16 04:03:32;;;;;;;22.45;12.15;;;-3.10;99.90;;;;;;5035454;28;20041;-61
2022/12/16 04:06:00;;;;;;;20.73;12.38;;;-3.10;99.90;;;;;;5039992;28;20048;-60
2022/12/16 04:08:26;;;;;;;20.83;12.18;;;-3.10;99.90;;;;;;5034286;28;20120;-62
2022/12/16 04:24:40;;;;;;;21.95;11.25;;;-3.20;99.90;;;;;;5054217;28;20060;-60
2022/12/16 04:27:26;;;;;;;17.33;10.70;;;-3.30;99.90;;;;;;5052550;28;20037;-59
